sensor_id;sensor_type;location;lat;lon;timestamp;P1;durP1;ratioP1;P2;durP2;ratioP2
55368;SDS011;41247;49.736;8.752;2022-12-05T00:01:18;78.65;;;26.20;;
55368;SDS011;41247;49.736;8.752;2022-12-05T00:05:03;74.22;;;26.42;;
55368;SDS011;41247;49.736;8.752;2022-12-05T00:08:44;96.38;;;27.27;;
55368;SDS011;41247;49.736;8.752;2022-12-05T00:12:25;123.97;;;28.42;;
55368;SDS011;41247;49.736;8.752;2022-12-05T00:16:07;70.65;;;25.67;;
55368;SDS011;41247;49.736;8.752;2022-12-05T00:19:50;75.07;;;26.33;;
55368;SDS011;41247;49.736;8.752;2022-12-05T00:23:30;67.10;;;25.10;;
55368;SDS011;41247;49.736;8.752;2022-12-05T00:27:11;63.45;;;24.98;;
55368;SDS011;41247;49.736;8.752;2022-12-05T00:30:52;70.30;;;25.80;;
55368;SDS011;41247;49.736;8.752;2022-12-05T00:34:32;66.30;;;25.38;;
55368;SDS011;41247;49.736;8.752;2022-12-05T00:38:13;63.75;;;24.38;;
55368;SDS011;41247;49.736;8.752;2022-12-05T00:41:53;66.05;;;25.23;;
55368;SDS011;41247;49.736;8.752;2022-12-05T00:45:34;82.30;;;26.83;;
55368;SDS011;41247;49.736;8.752;2022-12-05T00:49:15;71.55;;;25.40;;
55368;SDS011;41247;49.736;8.752;2022-12-05T00:52:55;82.75;;;27.05;;
55368;SDS011;41247;49.736;8.752;2022-12-05T00:56:36;80.53;;;24.73;;
55368;SDS011;41247;49.736;8.752;2022-12-05T01:00:17;64.70;;;25.20;;
55368;SDS011;41247;49.736;8.752;2022-12-05T01:03:58;61.10;;;23.02;;
55368;SDS011;41247;49.736;8.752;2022-12-05T01:11:23;53.53;;;22.50;;
55368;SDS011;41247;49.736;8.752;2022-12-05T01:15:05;58.05;;;24.38;;
55368;SDS011;41247;49.736;8.752;2022-12-05T01:18:48;71.30;;;25.75;;
55368;SDS011;41247;49.736;8.752;2022-12-05T01:22:28;64.97;;;23.92;;
55368;SDS011;41247;49.736;8.752;2022-12-05T01:26:11;66.03;;;24.75;;
55368;SDS011;41247;49.736;8.752;2022-12-05T01:29:53;68.53;;;25.20;;
55368;SDS011;41247;49.736;8.752;2022-12-05T01:33:34;58.00;;;23.33;;
55368;SDS011;41247;49.736;8.752;2022-12-05T01:37:15;65.43;;;24.23;;
55368;SDS011;41247;49.736;8.752;2022-12-05T01:41:02;61.60;;;24.42;;
55368;SDS011;41247;49.736;8.752;2022-12-05T01:48:32;67.80;;;25.95;;
55368;SDS011;41247;49.736;8.752;2022-12-05T01:52:17;82.05;;;26.27;;
55368;SDS011;41247;49.736;8.752;2022-12-05T01:56:04;71.10;;;24.95;;
55368;SDS011;41247;49.736;8.752;2022-12-05T01:59:50;77.88;;;26.25;;
55368;SDS011;41247;49.736;8.752;2022-12-05T02:03:35;83.47;;;26.58;;
55368;SDS011;41247;49.736;8.752;2022-12-05T02:07:17;100.00;;;27.30;;
55368;SDS011;41247;49.736;8.752;2022-12-05T02:10:58;69.95;;;25.92;;
55368;SDS011;41247;49.736;8.752;2022-12-05T02:26:42;63.60;;;24.20;;
55368;SDS011;41247;49.736;8.752;2022-12-05T02:31:23;68.55;;;24.00;;
55368;SDS011;41247;49.736;8.752;2022-12-05T02:39:11;98.65;;;26.65;;
55368;SDS011;41247;49.736;8.752;2022-12-05T02:42:55;100.05;;;25.02;;
55368;SDS011;41247;49.736;8.752;2022-12-05T02:46:44;79.07;;;24.23;;
55368;SDS011;41247;49.736;8.752;2022-12-05T02:50:31;81.82;;;23.05;;
55368;SDS011;41247;49.736;8.752;2022-12-05T02:54:17;78.07;;;23.67;;
55368;SDS011;41247;49.736;8.752;2022-12-05T02:58:05;126.93;;;26.80;;
55368;SDS011;41247;49.736;8.752;2022-12-05T03:01:51;74.35;;;24.30;;
55368;SDS011;41247;49.736;8.752;2022-12-05T03:05:36;105.63;;;25.33;;
55368;SDS011;41247;49.736;8.752;2022-12-05T03:13:38;96.90;;;25.17;;
55368;SDS011;41247;49.736;8.752;2022-12-05T03:17:25;154.52;;;26.75;;
55368;SDS011;41247;49.736;8.752;2022-12-05T03:21:16;195.65;;;26.58;;
55368;SDS011;41247;49.736;8.752;2022-12-05T03:25:14;140.85;;;26.88;;
55368;SDS011;41247;49.736;8.752;2022-12-05T03:29:14;218.65;;;28.48;;
55368;SDS011;41247;49.736;8.752;2022-12-05T03:33:34;172.45;;;25.58;;
55368;SDS011;41247;49.736;8.752;2022-12-05T03:41:25;113.32;;;24.45;;
55368;SDS011;41247;49.736;8.752;2022-12-05T03:45:22;88.75;;;24.80;;
55368;SDS011;41247;49.736;8.752;2022-12-05T03:49:21;401.48;;;30.10;;
55368;SDS011;41247;49.736;8.752;2022-12-05T03:53:27;296.73;;;28.17;;
55368;SDS011;41247;49.736;8.752;2022-12-05T03:57:14;269.77;;;27.50;;
55368;SDS011;41247;49.736;8.752;2022-12-05T04:01:06;475.00;;;31.75;;
55368;SDS011;41247;49.736;8.752;2022-12-05T04:04:55;388.75;;;30.75;;
55368;SDS011;41247;49.736;8.752;2022-12-05T04:08:56;424.27;;;29.90;;
55368;SDS011;41247;49.736;8.752;2022-12-05T04:12:44;413.33;;;32.80;;
55368;SDS011;41247;49.736;8.752;2022-12-05T04:16:30;396.40;;;31.13;;
55368;SDS011;41247;49.736;8.752;2022-12-05T04:20:27;328.98;;;31.42;;
55368;SDS011;41247;49.736;8.752;2022-12-05T04:24:21;282.77;;;31.55;;
55368;SDS011;41247;49.736;8.752;2022-12-05T04:32:12;178.98;;;28.67;;
55368;SDS011;41247;49.736;8.752;2022-12-05T04:40:03;98.32;;;22.35;;
55368;SDS011;41247;49.736;8.752;2022-12-05T04:43:51;107.13;;;25.05;;
55368;SDS011;41247;49.736;8.752;2022-12-05T04:47:39;115.03;;;23.98;;
55368;SDS011;41247;49.736;8.752;2022-12-05T04:51:25;93.70;;;23.23;;
55368;SDS011;41247;49.736;8.752;2022-12-05T04:55:12;94.38;;;23.20;;
55368;SDS011;41247;49.736;8.752;2022-12-05T04:58:57;79.22;;;21.00;;
55368;SDS011;41247;49.736;8.752;2022-12-05T05:02:49;75.20;;;21.85;;
55368;SDS011;41247;49.736;8.752;2022-12-05T05:06:44;78.85;;;22.80;;
55368;SDS011;41247;49.736;8.752;2022-12-05T05:10:32;68.82;;;21.55;;
55368;SDS011;41247;49.736;8.752;2022-12-05T05:14:18;68.57;;;21.05;;
55368;SDS011;41247;49.736;8.752;2022-12-05T05:17:59;64.60;;;20.40;;
55368;SDS011;41247;49.736;8.752;2022-12-05T05:21:40;61.85;;;19.92;;
55368;SDS011;41247;49.736;8.752;2022-12-05T05:25:22;66.15;;;19.40;;
55368;SDS011;41247;49.736;8.752;2022-12-05T05:29:04;50.00;;;17.95;;
55368;SDS011;41247;49.736;8.752;2022-12-05T05:32:45;60.13;;;19.70;;
55368;SDS011;41247;49.736;8.752;2022-12-05T05:36:26;56.53;;;18.60;;
55368;SDS011;41247;49.736;8.752;2022-12-05T05:40:08;41.05;;;16.52;;
55368;SDS011;41247;49.736;8.752;2022-12-05T05:47:33;48.10;;;16.27;;
55368;SDS011;41247;49.736;8.752;2022-12-05T05:51:14;36.95;;;14.88;;
55368;SDS011;41247;49.736;8.752;2022-12-05T05:54:56;45.20;;;16.73;;
55368;SDS011;41247;49.736;8.752;2022-12-05T05:58:37;47.92;;;17.27;;
55368;SDS011;41247;49.736;8.752;2022-12-05T06:02:17;53.15;;;18.10;;
55368;SDS011;41247;49.736;8.752;2022-12-05T06:06:00;61.97;;;19.83;;
55368;SDS011;41247;49.736;8.752;2022-12-05T06:24:23;360.25;;;31.67;;
55368;SDS011;41247;49.736;8.752;2022-12-05T06:59:58;111.50;;;28.63;;
55368;SDS011;41247;49.736;8.752;2022-12-05T07:04:25;119.70;;;29.67;;
55368;SDS011;41247;49.736;8.752;2022-12-05T07:08:11;114.10;;;29.08;;
55368;SDS011;41247;49.736;8.752;2022-12-05T07:12:08;118.85;;;30.10;;
55368;SDS011;41247;49.736;8.752;2022-12-05T07:16:09;107.90;;;28.10;;
55368;SDS011;41247;49.736;8.752;2022-12-05T07:20:36;98.32;;;29.23;;
55368;SDS011;41247;49.736;8.752;2022-12-05T07:25:23;99.47;;;28.13;;
55368;SDS011;41247;49.736;8.752;2022-12-05T07:33:38;95.68;;;28.52;;
55368;SDS011;41247;49.736;8.752;2022-12-05T07:37:18;83.70;;;25.48;;
55368;SDS011;41247;49.736;8.752;2022-12-05T07:41:02;78.30;;;24.35;;
55368;SDS011;41247;49.736;8.752;2022-12-05T07:44:48;85.85;;;25.98;;
55368;SDS011;41247;49.736;8.752;2022-12-05T07:48:29;83.88;;;25.77;;
55368;SDS011;41247;49.736;8.752;2022-12-05T07:52:10;94.43;;;26.02;;
55368;SDS011;41247;49.736;8.752;2022-12-05T07:55:50;84.80;;;27.15;;
55368;SDS011;41247;49.736;8.752;2022-12-05T07:59:31;89.85;;;26.98;;
55368;SDS011;41247;49.736;8.752;2022-12-05T08:03:11;85.45;;;25.92;;
55368;SDS011;41247;49.736;8.752;2022-12-05T08:06:52;87.82;;;27.38;;
55368;SDS011;41247;49.736;8.752;2022-12-05T08:10:33;86.88;;;26.20;;
55368;SDS011;41247;49.736;8.752;2022-12-05T08:14:14;85.32;;;26.20;;
55368;SDS011;41247;49.736;8.752;2022-12-05T08:17:54;82.75;;;25.42;;
55368;SDS011;41247;49.736;8.752;2022-12-05T08:21:35;83.43;;;26.25;;
55368;SDS011;41247;49.736;8.752;2022-12-05T08:25:15;98.20;;;26.63;;
55368;SDS011;41247;49.736;8.752;2022-12-05T08:28:57;94.15;;;27.20;;
55368;SDS011;41247;49.736;8.752;2022-12-05T08:32:41;92.05;;;27.25;;
55368;SDS011;41247;49.736;8.752;2022-12-05T08:36:22;101.75;;;29.35;;
55368;SDS011;41247;49.736;8.752;2022-12-05T08:40:03;87.20;;;27.40;;
55368;SDS011;41247;49.736;8.752;2022-12-05T08:43:44;86.63;;;27.42;;
55368;SDS011;41247;49.736;8.752;2022-12-05T08:47:25;88.78;;;26.73;;
55368;SDS011;41247;49.736;8.752;2022-12-05T08:51:06;73.53;;;24.83;;
55368;SDS011;41247;49.736;8.752;2022-12-05T08:54:49;86.43;;;25.85;;
55368;SDS011;41247;49.736;8.752;2022-12-05T08:58:29;79.20;;;24.27;;
55368;SDS011;41247;49.736;8.752;2022-12-05T09:02:10;80.22;;;25.73;;
55368;SDS011;41247;49.736;8.752;2022-12-05T09:05:51;61.63;;;22.33;;
55368;SDS011;41247;49.736;8.752;2022-12-05T09:09:32;68.63;;;23.92;;
55368;SDS011;41247;49.736;8.752;2022-12-05T09:13:13;65.95;;;23.73;;
55368;SDS011;41247;49.736;8.752;2022-12-05T09:16:54;73.60;;;25.05;;
55368;SDS011;41247;49.736;8.752;2022-12-05T09:20:37;69.57;;;23.73;;
55368;SDS011;41247;49.736;8.752;2022-12-05T09:24:18;65.78;;;23.95;;
55368;SDS011;41247;49.736;8.752;2022-12-05T09:27:59;76.38;;;24.77;;
55368;SDS011;41247;49.736;8.752;2022-12-05T09:31:39;89.50;;;27.35;;
55368;SDS011;41247;49.736;8.752;2022-12-05T09:35:21;88.78;;;27.75;;
55368;SDS011;41247;49.736;8.752;2022-12-05T09:39:03;74.22;;;23.13;;
55368;SDS011;41247;49.736;8.752;2022-12-05T09:51:33;197.07;;;29.25;;
55368;SDS011;41247;49.736;8.752;2022-12-05T09:55:18;82.13;;;25.33;;
55368;SDS011;41247;49.736;8.752;2022-12-05T09:59:00;138.25;;;27.73;;
55368;SDS011;41247;49.736;8.752;2022-12-05T10:02:46;118.97;;;27.58;;
55368;SDS011;41247;49.736;8.752;2022-12-05T10:06:56;101.40;;;27.40;;
55368;SDS011;41247;49.736;8.752;2022-12-05T10:11:09;116.57;;;29.67;;
55368;SDS011;41247;49.736;8.752;2022-12-05T10:19:05;127.22;;;29.02;;
55368;SDS011;41247;49.736;8.752;2022-12-05T10:22:59;114.40;;;28.23;;
55368;SDS011;41247;49.736;8.752;2022-12-05T10:26:47;119.95;;;28.88;;
55368;SDS011;41247;49.736;8.752;2022-12-05T10:30:35;116.65;;;27.48;;
55368;SDS011;41247;49.736;8.752;2022-12-05T10:38:13;117.18;;;27.45;;
55368;SDS011;41247;49.736;8.752;2022-12-05T10:42:06;102.82;;;27.60;;
55368;SDS011;41247;49.736;8.752;2022-12-05T10:45:54;104.38;;;27.17;;
55368;SDS011;41247;49.736;8.752;2022-12-05T10:49:35;105.88;;;27.50;;
55368;SDS011;41247;49.736;8.752;2022-12-05T10:53:18;102.60;;;26.90;;
55368;SDS011;41247;49.736;8.752;2022-12-05T10:57:18;111.53;;;29.63;;
55368;SDS011;41247;49.736;8.752;2022-12-05T11:01:07;103.43;;;28.42;;
55368;SDS011;41247;49.736;8.752;2022-12-05T11:04:53;83.82;;;24.55;;
55368;SDS011;41247;49.736;8.752;2022-12-05T11:08:34;103.00;;;26.95;;
55368;SDS011;41247;49.736;8.752;2022-12-05T11:16:28;93.40;;;25.88;;
55368;SDS011;41247;49.736;8.752;2022-12-05T11:23:58;91.97;;;25.02;;
55368;SDS011;41247;49.736;8.752;2022-12-05T11:31:55;85.53;;;24.33;;
55368;SDS011;41247;49.736;8.752;2022-12-05T11:35:36;99.18;;;25.73;;
55368;SDS011;41247;49.736;8.752;2022-12-05T11:39:17;86.50;;;24.40;;
55368;SDS011;41247;49.736;8.752;2022-12-05T11:43:24;86.13;;;25.55;;
55368;SDS011;41247;49.736;8.752;2022-12-05T11:47:18;92.10;;;26.25;;
55368;SDS011;41247;49.736;8.752;2022-12-05T11:51:37;97.30;;;26.38;;
55368;SDS011;41247;49.736;8.752;2022-12-05T11:55:28;103.15;;;27.58;;
55368;SDS011;41247;49.736;8.752;2022-12-05T12:03:26;117.20;;;27.60;;
55368;SDS011;41247;49.736;8.752;2022-12-05T12:11:26;115.88;;;29.75;;
55368;SDS011;41247;49.736;8.752;2022-12-05T12:24:50;109.57;;;26.48;;
55368;SDS011;41247;49.736;8.752;2022-12-05T12:50:02;115.10;;;30.35;;
55368;SDS011;41247;49.736;8.752;2022-12-05T12:53:54;119.43;;;30.52;;
55368;SDS011;41247;49.736;8.752;2022-12-05T12:58:02;104.47;;;28.85;;
55368;SDS011;41247;49.736;8.752;2022-12-05T13:06:11;94.55;;;29.70;;
55368;SDS011;41247;49.736;8.752;2022-12-05T13:09:56;95.00;;;28.77;;
55368;SDS011;41247;49.736;8.752;2022-12-05T13:13:52;96.32;;;30.60;;
55368;SDS011;41247;49.736;8.752;2022-12-05T13:17:36;100.80;;;31.50;;
55368;SDS011;41247;49.736;8.752;2022-12-05T13:25:10;104.28;;;31.48;;
55368;SDS011;41247;49.736;8.752;2022-12-05T13:29:00;78.55;;;28.02;;
55368;SDS011;41247;49.736;8.752;2022-12-05T13:32:43;81.50;;;28.05;;
55368;SDS011;41247;49.736;8.752;2022-12-05T13:36:23;83.43;;;30.65;;
55368;SDS011;41247;49.736;8.752;2022-12-05T13:40:04;75.38;;;27.33;;
55368;SDS011;41247;49.736;8.752;2022-12-05T13:44:02;77.38;;;28.80;;
55368;SDS011;41247;49.736;8.752;2022-12-05T13:51:38;80.07;;;29.30;;
55368;SDS011;41247;49.736;8.752;2022-12-05T14:07:38;61.95;;;25.27;;
55368;SDS011;41247;49.736;8.752;2022-12-05T14:11:33;64.88;;;25.35;;
55368;SDS011;41247;49.736;8.752;2022-12-05T14:28:01;61.00;;;27.08;;
55368;SDS011;41247;49.736;8.752;2022-12-05T14:32:24;57.78;;;25.20;;
55368;SDS011;41247;49.736;8.752;2022-12-05T14:36:14;53.35;;;23.83;;
55368;SDS011;41247;49.736;8.752;2022-12-05T14:39:58;55.45;;;25.48;;
55368;SDS011;41247;49.736;8.752;2022-12-05T14:43:56;50.60;;;22.98;;
55368;SDS011;41247;49.736;8.752;2022-12-05T14:47:37;49.00;;;22.83;;
55368;SDS011;41247;49.736;8.752;2022-12-05T14:51:41;51.17;;;23.70;;
55368;SDS011;41247;49.736;8.752;2022-12-05T14:55:24;50.53;;;22.83;;
55368;SDS011;41247;49.736;8.752;2022-12-05T15:03:21;43.38;;;19.88;;
55368;SDS011;41247;49.736;8.752;2022-12-05T15:07:10;49.92;;;22.48;;
55368;SDS011;41247;49.736;8.752;2022-12-05T15:10:57;48.72;;;20.55;;
55368;SDS011;41247;49.736;8.752;2022-12-05T15:14:43;47.80;;;20.35;;
55368;SDS011;41247;49.736;8.752;2022-12-05T15:18:46;44.72;;;20.15;;
55368;SDS011;41247;49.736;8.752;2022-12-05T15:22:32;41.72;;;19.45;;
55368;SDS011;41247;49.736;8.752;2022-12-05T15:26:26;29.88;;;15.52;;
55368;SDS011;41247;49.736;8.752;2022-12-05T15:30:18;27.75;;;13.85;;
55368;SDS011;41247;49.736;8.752;2022-12-05T15:34:04;28.10;;;13.23;;
55368;SDS011;41247;49.736;8.752;2022-12-05T15:41:51;24.30;;;12.77;;
55368;SDS011;41247;49.736;8.752;2022-12-05T15:45:35;23.20;;;12.48;;
55368;SDS011;41247;49.736;8.752;2022-12-05T15:49:16;25.27;;;12.88;;
55368;SDS011;41247;49.736;8.752;2022-12-05T15:53:08;23.70;;;12.48;;
55368;SDS011;41247;49.736;8.752;2022-12-05T16:00:49;26.13;;;11.32;;
55368;SDS011;41247;49.736;8.752;2022-12-05T16:04:37;20.75;;;10.38;;
55368;SDS011;41247;49.736;8.752;2022-12-05T16:08:32;18.30;;;10.50;;
55368;SDS011;41247;49.736;8.752;2022-12-05T16:12:25;19.63;;;10.98;;
55368;SDS011;41247;49.736;8.752;2022-12-05T16:16:35;21.13;;;10.27;;
55368;SDS011;41247;49.736;8.752;2022-12-05T16:24:17;14.73;;;8.55;;
55368;SDS011;41247;49.736;8.752;2022-12-05T16:31:51;18.40;;;8.98;;
55368;SDS011;41247;49.736;8.752;2022-12-05T16:35:38;19.27;;;9.32;;
55368;SDS011;41247;49.736;8.752;2022-12-05T16:39:21;21.65;;;9.90;;
55368;SDS011;41247;49.736;8.752;2022-12-05T16:43:04;16.38;;;7.68;;
55368;SDS011;41247;49.736;8.752;2022-12-05T16:47:02;16.55;;;8.77;;
55368;SDS011;41247;49.736;8.752;2022-12-05T16:50:42;15.80;;;8.27;;
55368;SDS011;41247;49.736;8.752;2022-12-05T16:54:23;17.25;;;8.63;;
55368;SDS011;41247;49.736;8.752;2022-12-05T16:58:04;15.15;;;7.78;;
55368;SDS011;41247;49.736;8.752;2022-12-05T17:01:47;14.43;;;8.03;;
55368;SDS011;41247;49.736;8.752;2022-12-05T17:05:28;14.52;;;7.50;;
55368;SDS011;41247;49.736;8.752;2022-12-05T17:09:08;13.23;;;7.68;;
55368;SDS011;41247;49.736;8.752;2022-12-05T17:12:49;13.35;;;7.95;;
55368;SDS011;41247;49.736;8.752;2022-12-05T17:16:29;13.50;;;8.57;;
55368;SDS011;41247;49.736;8.752;2022-12-05T17:20:10;16.10;;;8.63;;
55368;SDS011;41247;49.736;8.752;2022-12-05T17:23:51;16.35;;;9.25;;
55368;SDS011;41247;49.736;8.752;2022-12-05T17:27:32;16.30;;;8.95;;
55368;SDS011;41247;49.736;8.752;2022-12-05T17:31:13;16.45;;;9.38;;
55368;SDS011;41247;49.736;8.752;2022-12-05T17:34:58;14.95;;;9.05;;
55368;SDS011;41247;49.736;8.752;2022-12-05T17:38:39;16.92;;;10.63;;
55368;SDS011;41247;49.736;8.752;2022-12-05T17:42:20;18.00;;;10.57;;
55368;SDS011;41247;49.736;8.752;2022-12-05T17:46:01;22.63;;;11.32;;
55368;SDS011;41247;49.736;8.752;2022-12-05T17:49:42;12.43;;;8.48;;
55368;SDS011;41247;49.736;8.752;2022-12-05T17:53:22;15.85;;;8.80;;
55368;SDS011;41247;49.736;8.752;2022-12-05T17:57:03;16.13;;;8.27;;
55368;SDS011;41247;49.736;8.752;2022-12-05T18:00:43;12.48;;;7.32;;
55368;SDS011;41247;49.736;8.752;2022-12-05T18:04:25;9.98;;;6.68;;
55368;SDS011;41247;49.736;8.752;2022-12-05T18:08:05;10.38;;;6.60;;
55368;SDS011;41247;49.736;8.752;2022-12-05T18:11:46;12.00;;;7.38;;
55368;SDS011;41247;49.736;8.752;2022-12-05T18:15:27;10.13;;;6.65;;
55368;SDS011;41247;49.736;8.752;2022-12-05T18:19:07;11.48;;;7.50;;
55368;SDS011;41247;49.736;8.752;2022-12-05T18:22:48;10.30;;;7.00;;
55368;SDS011;41247;49.736;8.752;2022-12-05T18:26:28;12.23;;;7.75;;
55368;SDS011;41247;49.736;8.752;2022-12-05T18:30:09;12.32;;;7.35;;
55368;SDS011;41247;49.736;8.752;2022-12-05T18:33:51;10.60;;;6.90;;
55368;SDS011;41247;49.736;8.752;2022-12-05T18:37:34;15.38;;;8.98;;
55368;SDS011;41247;49.736;8.752;2022-12-05T18:41:16;13.88;;;8.95;;
55368;SDS011;41247;49.736;8.752;2022-12-05T18:44:56;11.07;;;7.80;;
55368;SDS011;41247;49.736;8.752;2022-12-05T18:48:37;13.75;;;8.55;;
55368;SDS011;41247;49.736;8.752;2022-12-05T18:52:20;14.48;;;8.85;;
55368;SDS011;41247;49.736;8.752;2022-12-05T18:56:04;15.75;;;10.65;;
55368;SDS011;41247;49.736;8.752;2022-12-05T18:59:46;10.77;;;7.25;;
55368;SDS011;41247;49.736;8.752;2022-12-05T19:03:27;11.93;;;7.93;;
55368;SDS011;41247;49.736;8.752;2022-12-05T19:07:07;10.93;;;6.95;;
55368;SDS011;41247;49.736;8.752;2022-12-05T19:10:48;9.43;;;6.70;;
55368;SDS011;41247;49.736;8.752;2022-12-05T19:14:28;17.13;;;13.82;;
55368;SDS011;41247;49.736;8.752;2022-12-05T19:18:09;11.80;;;6.43;;
55368;SDS011;41247;49.736;8.752;2022-12-05T19:21:50;10.90;;;6.80;;
55368;SDS011;41247;49.736;8.752;2022-12-05T19:25:30;8.15;;;5.75;;
55368;SDS011;41247;49.736;8.752;2022-12-05T19:29:11;9.77;;;6.32;;
55368;SDS011;41247;49.736;8.752;2022-12-05T19:32:53;9.30;;;6.38;;
55368;SDS011;41247;49.736;8.752;2022-12-05T19:36:38;8.05;;;5.65;;
55368;SDS011;41247;49.736;8.752;2022-12-05T19:40:21;10.70;;;7.25;;
55368;SDS011;41247;49.736;8.752;2022-12-05T19:44:02;11.32;;;6.35;;
55368;SDS011;41247;49.736;8.752;2022-12-05T19:47:43;9.70;;;5.82;;
55368;SDS011;41247;49.736;8.752;2022-12-05T19:51:23;14.65;;;6.80;;
55368;SDS011;41247;49.736;8.752;2022-12-05T19:55:04;10.25;;;6.32;;
55368;SDS011;41247;49.736;8.752;2022-12-05T19:58:45;9.10;;;6.00;;
55368;SDS011;41247;49.736;8.752;2022-12-05T20:02:26;8.63;;;6.45;;
55368;SDS011;41247;49.736;8.752;2022-12-05T20:06:07;9.98;;;5.90;;
55368;SDS011;41247;49.736;8.752;2022-12-05T20:09:49;8.85;;;5.97;;
55368;SDS011;41247;49.736;8.752;2022-12-05T20:13:37;8.95;;;6.68;;
55368;SDS011;41247;49.736;8.752;2022-12-05T20:17:19;14.25;;;6.20;;
55368;SDS011;41247;49.736;8.752;2022-12-05T20:21:00;10.32;;;6.25;;
55368;SDS011;41247;49.736;8.752;2022-12-05T20:24:41;11.13;;;6.93;;
55368;SDS011;41247;49.736;8.752;2022-12-05T20:28:21;10.75;;;5.85;;
55368;SDS011;41247;49.736;8.752;2022-12-05T20:32:02;8.73;;;5.60;;
55368;SDS011;41247;49.736;8.752;2022-12-05T20:35:43;11.48;;;5.90;;
55368;SDS011;41247;49.736;8.752;2022-12-05T20:39:23;11.20;;;5.90;;
55368;SDS011;41247;49.736;8.752;2022-12-05T20:43:04;8.05;;;6.03;;
55368;SDS011;41247;49.736;8.752;2022-12-05T20:46:44;9.00;;;5.88;;
55368;SDS011;41247;49.736;8.752;2022-12-05T20:50:29;9.88;;;6.55;;
55368;SDS011;41247;49.736;8.752;2022-12-05T20:54:09;34.97;;;18.25;;
55368;SDS011;41247;49.736;8.752;2022-12-05T20:57:51;12.43;;;8.45;;
55368;SDS011;41247;49.736;8.752;2022-12-05T21:01:32;15.32;;;7.57;;
55368;SDS011;41247;49.736;8.752;2022-12-05T21:05:14;10.70;;;7.00;;
55368;SDS011;41247;49.736;8.752;2022-12-05T21:08:55;12.45;;;7.32;;
55368;SDS011;41247;49.736;8.752;2022-12-05T21:12:37;11.90;;;7.38;;
55368;SDS011;41247;49.736;8.752;2022-12-05T21:16:18;10.98;;;6.95;;
55368;SDS011;41247;49.736;8.752;2022-12-05T21:20:00;10.80;;;6.80;;
55368;SDS011;41247;49.736;8.752;2022-12-05T21:23:41;11.75;;;7.13;;
55368;SDS011;41247;49.736;8.752;2022-12-05T21:27:23;13.30;;;7.85;;
55368;SDS011;41247;49.736;8.752;2022-12-05T21:31:05;9.95;;;7.05;;
55368;SDS011;41247;49.736;8.752;2022-12-05T21:34:54;11.07;;;7.20;;
55368;SDS011;41247;49.736;8.752;2022-12-05T21:38:35;10.68;;;7.43;;
55368;SDS011;41247;49.736;8.752;2022-12-05T21:42:15;10.35;;;6.68;;
55368;SDS011;41247;49.736;8.752;2022-12-05T21:45:56;12.68;;;7.55;;
55368;SDS011;41247;49.736;8.752;2022-12-05T21:49:36;10.85;;;6.88;;
55368;SDS011;41247;49.736;8.752;2022-12-05T21:53:17;12.80;;;7.63;;
55368;SDS011;41247;49.736;8.752;2022-12-05T21:56:59;12.57;;;7.18;;
55368;SDS011;41247;49.736;8.752;2022-12-05T22:00:40;10.18;;;7.03;;
55368;SDS011;41247;49.736;8.752;2022-12-05T22:04:21;11.07;;;7.22;;
55368;SDS011;41247;49.736;8.752;2022-12-05T22:08:02;9.30;;;6.55;;
55368;SDS011;41247;49.736;8.752;2022-12-05T22:11:42;10.13;;;7.03;;
55368;SDS011;41247;49.736;8.752;2022-12-05T22:15:23;12.45;;;7.57;;
55368;SDS011;41247;49.736;8.752;2022-12-05T22:19:03;10.07;;;7.55;;
55368;SDS011;41247;49.736;8.752;2022-12-05T22:22:44;13.23;;;8.85;;
55368;SDS011;41247;49.736;8.752;2022-12-05T22:26:25;16.55;;;10.27;;
55368;SDS011;41247;49.736;8.752;2022-12-05T22:30:06;14.73;;;9.13;;
55368;SDS011;41247;49.736;8.752;2022-12-05T22:33:49;13.05;;;8.80;;
55368;SDS011;41247;49.736;8.752;2022-12-05T22:37:30;15.65;;;8.13;;
55368;SDS011;41247;49.736;8.752;2022-12-05T22:41:12;12.45;;;8.20;;
55368;SDS011;41247;49.736;8.752;2022-12-05T22:45:01;12.93;;;8.15;;
55368;SDS011;41247;49.736;8.752;2022-12-05T22:48:42;14.60;;;9.40;;
55368;SDS011;41247;49.736;8.752;2022-12-05T22:52:23;21.48;;;10.77;;
55368;SDS011;41247;49.736;8.752;2022-12-05T22:56:06;19.20;;;10.18;;
55368;SDS011;41247;49.736;8.752;2022-12-05T22:59:52;18.45;;;10.30;;
55368;SDS011;41247;49.736;8.752;2022-12-05T23:03:32;21.75;;;11.05;;
55368;SDS011;41247;49.736;8.752;2022-12-05T23:07:13;19.83;;;11.65;;
55368;SDS011;41247;49.736;8.752;2022-12-05T23:10:57;15.05;;;9.52;;
55368;SDS011;41247;49.736;8.752;2022-12-05T23:14:40;17.67;;;9.77;;
55368;SDS011;41247;49.736;8.752;2022-12-05T23:18:21;21.95;;;11.63;;
55368;SDS011;41247;49.736;8.752;2022-12-05T23:22:01;19.30;;;10.93;;
55368;SDS011;41247;49.736;8.752;2022-12-05T23:25:42;14.70;;;9.48;;
55368;SDS011;41247;49.736;8.752;2022-12-05T23:29:23;17.70;;;9.90;;
55368;SDS011;41247;49.736;8.752;2022-12-05T23:33:03;19.02;;;11.05;;
55368;SDS011;41247;49.736;8.752;2022-12-05T23:36:44;22.27;;;10.77;;
55368;SDS011;41247;49.736;8.752;2022-12-05T23:40:24;29.05;;;11.50;;
55368;SDS011;41247;49.736;8.752;2022-12-05T23:44:17;30.13;;;11.95;;
55368;SDS011;41247;49.736;8.752;2022-12-05T23:47:58;29.65;;;11.60;;
55368;SDS011;41247;49.736;8.752;2022-12-05T23:51:38;19.77;;;11.18;;
55368;SDS011;41247;49.736;8.752;2022-12-05T23:55:19;20.05;;;11.13;;
55368;SDS011;41247;49.736;8.752;2022-12-05T23:59:00;25.05;;;11.80;;
